sensor_id;sensor_type;location;lat;lon;timestamp;P1;durP1;ratioP1;P2;durP2;ratioP2
9218;SDS011;4644;48.858;9.184;2023-11-21T00:02:22;0.70;;;0.70;;
9218;SDS011;4644;48.858;9.184;2023-11-21T00:04:49;0.60;;;0.60;;
9218;SDS011;4644;48.858;9.184;2023-11-21T00:07:17;0.60;;;0.60;;
9218;SDS011;4644;48.858;9.184;2023-11-21T00:09:46;0.60;;;0.60;;
9218;SDS011;4644;48.858;9.184;2023-11-21T00:12:13;0.47;;;0.47;;
9218;SDS011;4644;48.858;9.184;2023-11-21T00:14:40;0.47;;;0.47;;
9218;SDS011;4644;48.858;9.184;2023-11-21T00:17:07;0.70;;;0.70;;
9218;SDS011;4644;48.858;9.184;2023-11-21T00:19:49;0.60;;;0.60;;
9218;SDS011;4644;48.858;9.184;2023-11-21T00:22:17;0.70;;;0.70;;
9218;SDS011;4644;48.858;9.184;2023-11-21T00:24:44;0.80;;;0.70;;
9218;SDS011;4644;48.858;9.184;2023-11-21T00:27:11;0.53;;;0.43;;
9218;SDS011;4644;48.858;9.184;2023-11-21T00:29:38;0.67;;;0.60;;
9218;SDS011;4644;48.858;9.184;2023-11-21T00:32:05;0.77;;;0.67;;
9218;SDS011;4644;48.858;9.184;2023-11-21T00:34:32;0.50;;;0.50;;
9218;SDS011;4644;48.858;9.184;2023-11-21T00:37:01;0.60;;;0.60;;
9218;SDS011;4644;48.858;9.184;2023-11-21T00:39:28;0.40;;;0.40;;
9218;SDS011;4644;48.858;9.184;2023-11-21T00:41:56;0.60;;;0.60;;
9218;SDS011;4644;48.858;9.184;2023-11-21T00:44:23;0.60;;;0.60;;
9218;SDS011;4644;48.858;9.184;2023-11-21T00:46:49;0.50;;;0.50;;
9218;SDS011;4644;48.858;9.184;2023-11-21T00:49:16;0.47;;;0.47;;
9218;SDS011;4644;48.858;9.184;2023-11-21T00:51:44;0.63;;;0.63;;
9218;SDS011;4644;48.858;9.184;2023-11-21T00:54:13;0.50;;;0.50;;
9218;SDS011;4644;48.858;9.184;2023-11-21T00:56:42;0.67;;;0.67;;
9218;SDS011;4644;48.858;9.184;2023-11-21T00:59:09;0.60;;;0.60;;
9218;SDS011;4644;48.858;9.184;2023-11-21T01:01:36;0.60;;;0.60;;
9218;SDS011;4644;48.858;9.184;2023-11-21T01:04:04;0.70;;;0.70;;
9218;SDS011;4644;48.858;9.184;2023-11-21T01:06:32;0.60;;;0.60;;
9218;SDS011;4644;48.858;9.184;2023-11-21T01:08:58;0.60;;;0.60;;
9218;SDS011;4644;48.858;9.184;2023-11-21T01:11:27;0.60;;;0.60;;
9218;SDS011;4644;48.858;9.184;2023-11-21T01:13:54;0.70;;;0.70;;
9218;SDS011;4644;48.858;9.184;2023-11-21T01:16:21;0.50;;;0.50;;
9218;SDS011;4644;48.858;9.184;2023-11-21T01:18:49;0.70;;;0.70;;
9218;SDS011;4644;48.858;9.184;2023-11-21T01:21:16;0.60;;;0.60;;
9218;SDS011;4644;48.858;9.184;2023-11-21T01:23:43;0.50;;;0.50;;
9218;SDS011;4644;48.858;9.184;2023-11-21T01:26:10;0.50;;;0.50;;
9218;SDS011;4644;48.858;9.184;2023-11-21T01:28:38;0.60;;;0.60;;
9218;SDS011;4644;48.858;9.184;2023-11-21T01:31:05;0.47;;;0.47;;
9218;SDS011;4644;48.858;9.184;2023-11-21T01:33:33;0.50;;;0.50;;
9218;SDS011;4644;48.858;9.184;2023-11-21T01:36:00;0.57;;;0.57;;
9218;SDS011;4644;48.858;9.184;2023-11-21T01:38:27;0.50;;;0.50;;
9218;SDS011;4644;48.858;9.184;2023-11-21T01:40:54;0.57;;;0.57;;
9218;SDS011;4644;48.858;9.184;2023-11-21T01:43:21;0.47;;;0.47;;
9218;SDS011;4644;48.858;9.184;2023-11-21T01:45:49;0.50;;;0.50;;
9218;SDS011;4644;48.858;9.184;2023-11-21T01:48:16;0.53;;;0.53;;
9218;SDS011;4644;48.858;9.184;2023-11-21T01:50:43;0.60;;;0.60;;
9218;SDS011;4644;48.858;9.184;2023-11-21T01:53:11;0.67;;;0.67;;
9218;SDS011;4644;48.858;9.184;2023-11-21T01:55:39;0.67;;;0.67;;
9218;SDS011;4644;48.858;9.184;2023-11-21T01:58:10;0.50;;;0.50;;
9218;SDS011;4644;48.858;9.184;2023-11-21T02:00:37;0.60;;;0.60;;
9218;SDS011;4644;48.858;9.184;2023-11-21T02:03:06;0.50;;;0.50;;
9218;SDS011;4644;48.858;9.184;2023-11-21T02:05:35;1.43;;;0.50;;
9218;SDS011;4644;48.858;9.184;2023-11-21T02:08:03;0.87;;;0.70;;
9218;SDS011;4644;48.858;9.184;2023-11-21T02:10:30;0.60;;;0.60;;
9218;SDS011;4644;48.858;9.184;2023-11-21T02:12:58;0.60;;;0.60;;
9218;SDS011;4644;48.858;9.184;2023-11-21T02:15:27;0.50;;;0.50;;
9218;SDS011;4644;48.858;9.184;2023-11-21T02:17:55;0.40;;;0.40;;
9218;SDS011;4644;48.858;9.184;2023-11-21T02:20:24;0.40;;;0.40;;
9218;SDS011;4644;48.858;9.184;2023-11-21T02:22:55;0.57;;;0.57;;
9218;SDS011;4644;48.858;9.184;2023-11-21T02:25:24;0.60;;;0.60;;
9218;SDS011;4644;48.858;9.184;2023-11-21T02:27:52;0.63;;;0.63;;
9218;SDS011;4644;48.858;9.184;2023-11-21T02:30:20;0.60;;;0.60;;
9218;SDS011;4644;48.858;9.184;2023-11-21T02:32:47;0.53;;;0.53;;
9218;SDS011;4644;48.858;9.184;2023-11-21T02:35:15;0.40;;;0.40;;
9218;SDS011;4644;48.858;9.184;2023-11-21T02:37:42;0.60;;;0.60;;
9218;SDS011;4644;48.858;9.184;2023-11-21T02:40:12;0.60;;;0.60;;
9218;SDS011;4644;48.858;9.184;2023-11-21T02:42:42;0.50;;;0.50;;
9218;SDS011;4644;48.858;9.184;2023-11-21T02:45:09;0.50;;;0.50;;
9218;SDS011;4644;48.858;9.184;2023-11-21T02:47:38;0.63;;;0.63;;
9218;SDS011;4644;48.858;9.184;2023-11-21T02:50:05;0.60;;;0.60;;
9218;SDS011;4644;48.858;9.184;2023-11-21T02:52:34;0.50;;;0.50;;
9218;SDS011;4644;48.858;9.184;2023-11-21T02:55:01;0.57;;;0.57;;
9218;SDS011;4644;48.858;9.184;2023-11-21T02:57:29;0.43;;;0.43;;
9218;SDS011;4644;48.858;9.184;2023-11-21T02:59:57;0.50;;;0.50;;
9218;SDS011;4644;48.858;9.184;2023-11-21T03:02:24;0.60;;;0.60;;
9218;SDS011;4644;48.858;9.184;2023-11-21T03:04:51;0.50;;;0.50;;
9218;SDS011;4644;48.858;9.184;2023-11-21T03:07:18;0.50;;;0.50;;
9218;SDS011;4644;48.858;9.184;2023-11-21T03:09:45;0.50;;;0.50;;
9218;SDS011;4644;48.858;9.184;2023-11-21T03:12:12;0.40;;;0.40;;
9218;SDS011;4644;48.858;9.184;2023-11-21T03:14:43;0.57;;;0.50;;
9218;SDS011;4644;48.858;9.184;2023-11-21T03:17:10;0.53;;;0.53;;
9218;SDS011;4644;48.858;9.184;2023-11-21T03:19:40;0.60;;;0.60;;
9218;SDS011;4644;48.858;9.184;2023-11-21T03:22:07;1.80;;;0.43;;
9218;SDS011;4644;48.858;9.184;2023-11-21T03:24:35;0.40;;;0.40;;
9218;SDS011;4644;48.858;9.184;2023-11-21T03:27:03;0.50;;;0.50;;
9218;SDS011;4644;48.858;9.184;2023-11-21T03:29:30;0.40;;;0.40;;
9218;SDS011;4644;48.858;9.184;2023-11-21T03:31:59;0.50;;;0.47;;
9218;SDS011;4644;48.858;9.184;2023-11-21T03:34:26;0.60;;;0.60;;
9218;SDS011;4644;48.858;9.184;2023-11-21T03:36:54;0.50;;;0.50;;
9218;SDS011;4644;48.858;9.184;2023-11-21T03:39:21;0.40;;;0.40;;
9218;SDS011;4644;48.858;9.184;2023-11-21T03:41:48;0.50;;;0.50;;
9218;SDS011;4644;48.858;9.184;2023-11-21T03:44:17;0.67;;;0.67;;
9218;SDS011;4644;48.858;9.184;2023-11-21T03:46:44;0.40;;;0.40;;
9218;SDS011;4644;48.858;9.184;2023-11-21T03:49:12;0.50;;;0.50;;
9218;SDS011;4644;48.858;9.184;2023-11-21T03:51:39;0.50;;;0.50;;
9218;SDS011;4644;48.858;9.184;2023-11-21T03:54:06;0.43;;;0.43;;
9218;SDS011;4644;48.858;9.184;2023-11-21T03:56:33;0.40;;;0.40;;
9218;SDS011;4644;48.858;9.184;2023-11-21T03:59:00;1.50;;;0.50;;
9218;SDS011;4644;48.858;9.184;2023-11-21T04:01:28;0.40;;;0.40;;
9218;SDS011;4644;48.858;9.184;2023-11-21T04:03:55;0.50;;;0.50;;
9218;SDS011;4644;48.858;9.184;2023-11-21T04:06:24;0.50;;;0.50;;
9218;SDS011;4644;48.858;9.184;2023-11-21T04:08:51;0.40;;;0.40;;
9218;SDS011;4644;48.858;9.184;2023-11-21T04:11:18;0.43;;;0.43;;
9218;SDS011;4644;48.858;9.184;2023-11-21T04:13:45;0.70;;;0.70;;
9218;SDS011;4644;48.858;9.184;2023-11-21T04:16:12;0.50;;;0.50;;
9218;SDS011;4644;48.858;9.184;2023-11-21T04:18:41;0.50;;;0.50;;
9218;SDS011;4644;48.858;9.184;2023-11-21T04:21:08;1.57;;;0.90;;
9218;SDS011;4644;48.858;9.184;2023-11-21T04:23:37;0.53;;;0.50;;
9218;SDS011;4644;48.858;9.184;2023-11-21T04:26:05;0.50;;;0.50;;
9218;SDS011;4644;48.858;9.184;2023-11-21T04:28:32;0.50;;;0.50;;
9218;SDS011;4644;48.858;9.184;2023-11-21T04:30:59;0.43;;;0.43;;
9218;SDS011;4644;48.858;9.184;2023-11-21T04:33:27;0.60;;;0.60;;
9218;SDS011;4644;48.858;9.184;2023-11-21T04:35:54;0.40;;;0.40;;
9218;SDS011;4644;48.858;9.184;2023-11-21T04:38:21;0.43;;;0.43;;
9218;SDS011;4644;48.858;9.184;2023-11-21T04:40:49;0.40;;;0.40;;
9218;SDS011;4644;48.858;9.184;2023-11-21T04:43:16;0.40;;;0.40;;
9218;SDS011;4644;48.858;9.184;2023-11-21T04:45:43;0.50;;;0.50;;
9218;SDS011;4644;48.858;9.184;2023-11-21T04:48:10;0.43;;;0.43;;
9218;SDS011;4644;48.858;9.184;2023-11-21T04:50:37;0.50;;;0.50;;
9218;SDS011;4644;48.858;9.184;2023-11-21T04:53:04;0.50;;;0.50;;
9218;SDS011;4644;48.858;9.184;2023-11-21T04:55:31;0.40;;;0.40;;
9218;SDS011;4644;48.858;9.184;2023-11-21T04:58:00;0.67;;;0.50;;
9218;SDS011;4644;48.858;9.184;2023-11-21T05:00:29;1.17;;;0.43;;
9218;SDS011;4644;48.858;9.184;2023-11-21T05:02:56;0.50;;;0.50;;
9218;SDS011;4644;48.858;9.184;2023-11-21T05:05:23;0.53;;;0.53;;
9218;SDS011;4644;48.858;9.184;2023-11-21T05:07:50;0.53;;;0.53;;
9218;SDS011;4644;48.858;9.184;2023-11-21T05:10:18;0.50;;;0.50;;
9218;SDS011;4644;48.858;9.184;2023-11-21T05:12:45;0.60;;;0.60;;
9218;SDS011;4644;48.858;9.184;2023-11-21T05:15:15;0.60;;;0.60;;
9218;SDS011;4644;48.858;9.184;2023-11-21T05:17:43;1.30;;;0.60;;
9218;SDS011;4644;48.858;9.184;2023-11-21T05:20:11;0.53;;;0.53;;
9218;SDS011;4644;48.858;9.184;2023-11-21T05:22:39;0.60;;;0.60;;
9218;SDS011;4644;48.858;9.184;2023-11-21T05:25:07;0.60;;;0.60;;
9218;SDS011;4644;48.858;9.184;2023-11-21T05:27:34;0.70;;;0.70;;
9218;SDS011;4644;48.858;9.184;2023-11-21T05:30:02;0.70;;;0.70;;
9218;SDS011;4644;48.858;9.184;2023-11-21T05:32:32;1.07;;;0.70;;
9218;SDS011;4644;48.858;9.184;2023-11-21T05:34:59;0.80;;;0.80;;
9218;SDS011;4644;48.858;9.184;2023-11-21T05:37:26;0.70;;;0.70;;
9218;SDS011;4644;48.858;9.184;2023-11-21T05:39:54;0.80;;;0.80;;
9218;SDS011;4644;48.858;9.184;2023-11-21T05:42:22;0.90;;;0.90;;
9218;SDS011;4644;48.858;9.184;2023-11-21T05:44:52;0.80;;;0.80;;
9218;SDS011;4644;48.858;9.184;2023-11-21T05:47:19;1.20;;;0.93;;
9218;SDS011;4644;48.858;9.184;2023-11-21T05:49:48;2.10;;;1.07;;
9218;SDS011;4644;48.858;9.184;2023-11-21T05:52:16;1.07;;;0.97;;
9218;SDS011;4644;48.858;9.184;2023-11-21T05:54:43;1.53;;;1.20;;
9218;SDS011;4644;48.858;9.184;2023-11-21T05:57:11;1.40;;;1.30;;
9218;SDS011;4644;48.858;9.184;2023-11-21T05:59:38;1.00;;;1.00;;
9218;SDS011;4644;48.858;9.184;2023-11-21T06:02:05;0.93;;;0.87;;
9218;SDS011;4644;48.858;9.184;2023-11-21T06:04:33;1.60;;;0.80;;
9218;SDS011;4644;48.858;9.184;2023-11-21T06:07:01;1.57;;;0.80;;
9218;SDS011;4644;48.858;9.184;2023-11-21T06:09:28;0.80;;;0.80;;
9218;SDS011;4644;48.858;9.184;2023-11-21T06:11:55;0.70;;;0.70;;
9218;SDS011;4644;48.858;9.184;2023-11-21T06:14:23;0.63;;;0.63;;
9218;SDS011;4644;48.858;9.184;2023-11-21T06:16:50;0.60;;;0.60;;
9218;SDS011;4644;48.858;9.184;2023-11-21T06:19:17;0.70;;;0.70;;
9218;SDS011;4644;48.858;9.184;2023-11-21T06:21:45;0.70;;;0.70;;
9218;SDS011;4644;48.858;9.184;2023-11-21T06:24:14;0.83;;;0.83;;
9218;SDS011;4644;48.858;9.184;2023-11-21T06:26:42;0.90;;;0.90;;
9218;SDS011;4644;48.858;9.184;2023-11-21T06:29:09;0.97;;;0.97;;
9218;SDS011;4644;48.858;9.184;2023-11-21T06:31:37;1.10;;;1.00;;
9218;SDS011;4644;48.858;9.184;2023-11-21T06:34:06;0.90;;;0.90;;
9218;SDS011;4644;48.858;9.184;2023-11-21T06:36:34;0.70;;;0.70;;
9218;SDS011;4644;48.858;9.184;2023-11-21T06:39:01;0.93;;;0.80;;
9218;SDS011;4644;48.858;9.184;2023-11-21T06:41:33;0.50;;;0.50;;
9218;SDS011;4644;48.858;9.184;2023-11-21T06:44:00;0.77;;;0.77;;
9218;SDS011;4644;48.858;9.184;2023-11-21T06:46:27;1.03;;;0.90;;
9218;SDS011;4644;48.858;9.184;2023-11-21T06:48:54;0.83;;;0.83;;
9218;SDS011;4644;48.858;9.184;2023-11-21T06:51:22;0.80;;;0.80;;
9218;SDS011;4644;48.858;9.184;2023-11-21T06:53:48;0.80;;;0.80;;
9218;SDS011;4644;48.858;9.184;2023-11-21T06:56:16;0.70;;;0.70;;
9218;SDS011;4644;48.858;9.184;2023-11-21T06:58:44;0.87;;;0.77;;
9218;SDS011;4644;48.858;9.184;2023-11-21T07:01:12;0.83;;;0.83;;
9218;SDS011;4644;48.858;9.184;2023-11-21T07:03:40;1.00;;;0.80;;
9218;SDS011;4644;48.858;9.184;2023-11-21T07:06:08;0.77;;;0.77;;
9218;SDS011;4644;48.858;9.184;2023-11-21T07:08:35;0.87;;;0.87;;
9218;SDS011;4644;48.858;9.184;2023-11-21T07:11:02;1.47;;;0.90;;
9218;SDS011;4644;48.858;9.184;2023-11-21T07:13:29;0.63;;;0.63;;
9218;SDS011;4644;48.858;9.184;2023-11-21T07:15:59;1.37;;;0.80;;
9218;SDS011;4644;48.858;9.184;2023-11-21T07:18:26;0.90;;;0.90;;
9218;SDS011;4644;48.858;9.184;2023-11-21T07:20:53;1.00;;;1.00;;
9218;SDS011;4644;48.858;9.184;2023-11-21T07:23:20;0.60;;;0.60;;
9218;SDS011;4644;48.858;9.184;2023-11-21T07:25:48;0.73;;;0.73;;
9218;SDS011;4644;48.858;9.184;2023-11-21T07:28:14;0.60;;;0.60;;
9218;SDS011;4644;48.858;9.184;2023-11-21T07:30:42;0.70;;;0.70;;
9218;SDS011;4644;48.858;9.184;2023-11-21T07:33:10;0.73;;;0.73;;
9218;SDS011;4644;48.858;9.184;2023-11-21T07:35:37;0.90;;;0.80;;
9218;SDS011;4644;48.858;9.184;2023-11-21T07:38:05;0.60;;;0.60;;
9218;SDS011;4644;48.858;9.184;2023-11-21T07:40:32;0.77;;;0.77;;
9218;SDS011;4644;48.858;9.184;2023-11-21T07:42:59;1.20;;;0.70;;
9218;SDS011;4644;48.858;9.184;2023-11-21T07:45:26;0.60;;;0.60;;
9218;SDS011;4644;48.858;9.184;2023-11-21T07:47:53;0.67;;;0.67;;
9218;SDS011;4644;48.858;9.184;2023-11-21T07:50:22;0.60;;;0.60;;
9218;SDS011;4644;48.858;9.184;2023-11-21T07:52:49;0.70;;;0.70;;
9218;SDS011;4644;48.858;9.184;2023-11-21T07:55:16;0.60;;;0.60;;
9218;SDS011;4644;48.858;9.184;2023-11-21T07:57:43;0.90;;;0.90;;
9218;SDS011;4644;48.858;9.184;2023-11-21T08:00:11;0.97;;;0.90;;
9218;SDS011;4644;48.858;9.184;2023-11-21T08:02:40;0.70;;;0.70;;
9218;SDS011;4644;48.858;9.184;2023-11-21T08:05:10;0.60;;;0.60;;
9218;SDS011;4644;48.858;9.184;2023-11-21T08:07:39;0.80;;;0.80;;
9218;SDS011;4644;48.858;9.184;2023-11-21T08:10:07;0.67;;;0.67;;
9218;SDS011;4644;48.858;9.184;2023-11-21T08:12:36;0.93;;;0.93;;
9218;SDS011;4644;48.858;9.184;2023-11-21T08:15:04;0.70;;;0.70;;
9218;SDS011;4644;48.858;9.184;2023-11-21T08:17:32;1.10;;;1.03;;
9218;SDS011;4644;48.858;9.184;2023-11-21T08:20:00;0.80;;;0.80;;
9218;SDS011;4644;48.858;9.184;2023-11-21T08:22:28;0.80;;;0.77;;
9218;SDS011;4644;48.858;9.184;2023-11-21T08:24:57;0.90;;;0.90;;
9218;SDS011;4644;48.858;9.184;2023-11-21T08:27:24;0.60;;;0.60;;
9218;SDS011;4644;48.858;9.184;2023-11-21T08:29:51;0.73;;;0.73;;
9218;SDS011;4644;48.858;9.184;2023-11-21T08:32:18;0.90;;;0.90;;
9218;SDS011;4644;48.858;9.184;2023-11-21T08:34:45;0.70;;;0.70;;
9218;SDS011;4644;48.858;9.184;2023-11-21T08:37:15;0.80;;;0.80;;
9218;SDS011;4644;48.858;9.184;2023-11-21T08:39:43;0.83;;;0.83;;
9218;SDS011;4644;48.858;9.184;2023-11-21T08:42:12;0.70;;;0.70;;
9218;SDS011;4644;48.858;9.184;2023-11-21T08:44:39;0.80;;;0.80;;
9218;SDS011;4644;48.858;9.184;2023-11-21T08:47:09;0.83;;;0.83;;
9218;SDS011;4644;48.858;9.184;2023-11-21T08:49:36;0.77;;;0.77;;
9218;SDS011;4644;48.858;9.184;2023-11-21T08:52:03;0.70;;;0.70;;
9218;SDS011;4644;48.858;9.184;2023-11-21T08:54:31;0.70;;;0.70;;
9218;SDS011;4644;48.858;9.184;2023-11-21T08:56:59;1.07;;;0.93;;
9218;SDS011;4644;48.858;9.184;2023-11-21T08:59:27;0.73;;;0.73;;
9218;SDS011;4644;48.858;9.184;2023-11-21T09:01:54;0.83;;;0.77;;
9218;SDS011;4644;48.858;9.184;2023-11-21T09:04:21;0.80;;;0.70;;
9218;SDS011;4644;48.858;9.184;2023-11-21T09:06:48;0.70;;;0.70;;
9218;SDS011;4644;48.858;9.184;2023-11-21T09:09:15;0.50;;;0.50;;
9218;SDS011;4644;48.858;9.184;2023-11-21T09:11:42;0.93;;;0.63;;
9218;SDS011;4644;48.858;9.184;2023-11-21T09:14:10;0.57;;;0.57;;
9218;SDS011;4644;48.858;9.184;2023-11-21T09:16:42;0.70;;;0.70;;
9218;SDS011;4644;48.858;9.184;2023-11-21T09:19:09;0.50;;;0.50;;
9218;SDS011;4644;48.858;9.184;2023-11-21T09:21:37;0.70;;;0.70;;
9218;SDS011;4644;48.858;9.184;2023-11-21T09:24:04;0.57;;;0.57;;
9218;SDS011;4644;48.858;9.184;2023-11-21T09:26:34;0.60;;;0.60;;
9218;SDS011;4644;48.858;9.184;2023-11-21T09:29:01;0.73;;;0.73;;
9218;SDS011;4644;48.858;9.184;2023-11-21T09:31:28;0.73;;;0.73;;
9218;SDS011;4644;48.858;9.184;2023-11-21T09:33:57;0.60;;;0.60;;
9218;SDS011;4644;48.858;9.184;2023-11-21T09:36:24;0.70;;;0.70;;
9218;SDS011;4644;48.858;9.184;2023-11-21T09:38:53;0.50;;;0.50;;
9218;SDS011;4644;48.858;9.184;2023-11-21T09:41:21;0.80;;;0.80;;
9218;SDS011;4644;48.858;9.184;2023-11-21T09:43:55;0.53;;;0.53;;
9218;SDS011;4644;48.858;9.184;2023-11-21T09:46:25;0.53;;;0.53;;
9218;SDS011;4644;48.858;9.184;2023-11-21T09:48:55;0.70;;;0.70;;
9218;SDS011;4644;48.858;9.184;2023-11-21T09:51:27;0.73;;;0.73;;
9218;SDS011;4644;48.858;9.184;2023-11-21T09:53:58;0.53;;;0.53;;
9218;SDS011;4644;48.858;9.184;2023-11-21T09:56:32;0.50;;;0.50;;
9218;SDS011;4644;48.858;9.184;2023-11-21T09:58:59;0.60;;;0.60;;
9218;SDS011;4644;48.858;9.184;2023-11-21T10:01:31;0.53;;;0.53;;
9218;SDS011;4644;48.858;9.184;2023-11-21T10:04:00;0.40;;;0.40;;
9218;SDS011;4644;48.858;9.184;2023-11-21T10:06:28;0.57;;;0.57;;
9218;SDS011;4644;48.858;9.184;2023-11-21T10:08:56;0.60;;;0.60;;
9218;SDS011;4644;48.858;9.184;2023-11-21T10:11:26;0.40;;;0.40;;
9218;SDS011;4644;48.858;9.184;2023-11-21T10:13:55;0.60;;;0.60;;
9218;SDS011;4644;48.858;9.184;2023-11-21T10:16:24;0.60;;;0.60;;
9218;SDS011;4644;48.858;9.184;2023-11-21T10:18:55;0.47;;;0.47;;
9218;SDS011;4644;48.858;9.184;2023-11-21T10:21:26;0.70;;;0.70;;
9218;SDS011;4644;48.858;9.184;2023-11-21T10:23:53;0.40;;;0.40;;
9218;SDS011;4644;48.858;9.184;2023-11-21T10:26:22;0.50;;;0.50;;
9218;SDS011;4644;48.858;9.184;2023-11-21T10:28:56;0.50;;;0.50;;
9218;SDS011;4644;48.858;9.184;2023-11-21T10:31:23;0.50;;;0.50;;
9218;SDS011;4644;48.858;9.184;2023-11-21T10:33:52;0.50;;;0.50;;
9218;SDS011;4644;48.858;9.184;2023-11-21T10:36:28;0.50;;;0.50;;
9218;SDS011;4644;48.858;9.184;2023-11-21T10:38:55;0.50;;;0.50;;
9218;SDS011;4644;48.858;9.184;2023-11-21T10:41:23;0.50;;;0.50;;
9218;SDS011;4644;48.858;9.184;2023-11-21T10:43:52;0.60;;;0.60;;
9218;SDS011;4644;48.858;9.184;2023-11-21T10:46:20;0.50;;;0.50;;
9218;SDS011;4644;48.858;9.184;2023-11-21T10:48:51;0.47;;;0.47;;
9218;SDS011;4644;48.858;9.184;2023-11-21T10:51:21;0.60;;;0.60;;
9218;SDS011;4644;48.858;9.184;2023-11-21T10:53:50;0.70;;;0.70;;
9218;SDS011;4644;48.858;9.184;2023-11-21T10:56:18;0.90;;;0.70;;
9218;SDS011;4644;48.858;9.184;2023-11-21T10:58:47;0.60;;;0.60;;
9218;SDS011;4644;48.858;9.184;2023-11-21T11:01:16;0.80;;;0.80;;
9218;SDS011;4644;48.858;9.184;2023-11-21T11:03:46;0.67;;;0.67;;
9218;SDS011;4644;48.858;9.184;2023-11-21T11:06:13;0.70;;;0.70;;
9218;SDS011;4644;48.858;9.184;2023-11-21T11:08:41;0.60;;;0.60;;
9218;SDS011;4644;48.858;9.184;2023-11-21T11:11:10;0.87;;;0.87;;
9218;SDS011;4644;48.858;9.184;2023-11-21T11:13:37;0.50;;;0.50;;
9218;SDS011;4644;48.858;9.184;2023-11-21T11:16:05;0.67;;;0.67;;
9218;SDS011;4644;48.858;9.184;2023-11-21T11:18:35;0.60;;;0.60;;
9218;SDS011;4644;48.858;9.184;2023-11-21T11:21:07;0.83;;;0.83;;
9218;SDS011;4644;48.858;9.184;2023-11-21T11:23:43;1.00;;;0.70;;
9218;SDS011;4644;48.858;9.184;2023-11-21T11:26:24;0.53;;;0.53;;
9218;SDS011;4644;48.858;9.184;2023-11-21T11:29:03;0.70;;;0.70;;
9218;SDS011;4644;48.858;9.184;2023-11-21T11:31:40;0.57;;;0.57;;
9218;SDS011;4644;48.858;9.184;2023-11-21T11:34:19;0.73;;;0.73;;
9218;SDS011;4644;48.858;9.184;2023-11-21T11:36:58;1.10;;;1.00;;
9218;SDS011;4644;48.858;9.184;2023-11-21T11:39:29;1.00;;;1.00;;
9218;SDS011;4644;48.858;9.184;2023-11-21T11:41:59;0.67;;;0.67;;
9218;SDS011;4644;48.858;9.184;2023-11-21T11:44:48;0.63;;;0.63;;
9218;SDS011;4644;48.858;9.184;2023-11-21T11:47:21;0.90;;;0.90;;
9218;SDS011;4644;48.858;9.184;2023-11-21T11:49:57;0.67;;;0.67;;
9218;SDS011;4644;48.858;9.184;2023-11-21T11:52:32;0.80;;;0.80;;
9218;SDS011;4644;48.858;9.184;2023-11-21T11:55:09;0.70;;;0.70;;
9218;SDS011;4644;48.858;9.184;2023-11-21T11:57:40;0.80;;;0.80;;
9218;SDS011;4644;48.858;9.184;2023-11-21T12:00:12;0.80;;;0.80;;
9218;SDS011;4644;48.858;9.184;2023-11-21T12:02:45;0.87;;;0.87;;
9218;SDS011;4644;48.858;9.184;2023-11-21T12:05:14;0.77;;;0.77;;
9218;SDS011;4644;48.858;9.184;2023-11-21T12:07:44;0.73;;;0.73;;
9218;SDS011;4644;48.858;9.184;2023-11-21T12:10:15;0.90;;;0.90;;
9218;SDS011;4644;48.858;9.184;2023-11-21T12:12:49;0.70;;;0.70;;
9218;SDS011;4644;48.858;9.184;2023-11-21T12:15:17;0.97;;;0.90;;
9218;SDS011;4644;48.858;9.184;2023-11-21T12:17:45;1.07;;;1.07;;
9218;SDS011;4644;48.858;9.184;2023-11-21T12:20:14;0.90;;;0.90;;
9218;SDS011;4644;48.858;9.184;2023-11-21T12:22:44;0.97;;;0.97;;
9218;SDS011;4644;48.858;9.184;2023-11-21T12:25:15;0.97;;;0.97;;
9218;SDS011;4644;48.858;9.184;2023-11-21T12:27:44;0.80;;;0.80;;
9218;SDS011;4644;48.858;9.184;2023-11-21T12:30:13;1.03;;;1.03;;
9218;SDS011;4644;48.858;9.184;2023-11-21T12:32:41;0.73;;;0.73;;
9218;SDS011;4644;48.858;9.184;2023-11-21T12:35:09;1.30;;;1.20;;
9218;SDS011;4644;48.858;9.184;2023-11-21T12:37:36;1.00;;;1.00;;
9218;SDS011;4644;48.858;9.184;2023-11-21T12:40:05;1.10;;;1.00;;
9218;SDS011;4644;48.858;9.184;2023-11-21T12:42:36;0.80;;;0.80;;
9218;SDS011;4644;48.858;9.184;2023-11-21T12:45:10;0.90;;;0.90;;
9218;SDS011;4644;48.858;9.184;2023-11-21T12:47:47;1.00;;;1.00;;
9218;SDS011;4644;48.858;9.184;2023-11-21T12:50:18;0.77;;;0.77;;
9218;SDS011;4644;48.858;9.184;2023-11-21T12:52:49;1.17;;;1.10;;
9218;SDS011;4644;48.858;9.184;2023-11-21T12:55:19;0.90;;;0.90;;
9218;SDS011;4644;48.858;9.184;2023-11-21T12:57:48;0.77;;;0.77;;
9218;SDS011;4644;48.858;9.184;2023-11-21T13:00:17;1.97;;;0.70;;
9218;SDS011;4644;48.858;9.184;2023-11-21T13:02:53;0.60;;;0.60;;
9218;SDS011;4644;48.858;9.184;2023-11-21T13:05:29;0.60;;;0.60;;
9218;SDS011;4644;48.858;9.184;2023-11-21T13:07:58;0.50;;;0.50;;
9218;SDS011;4644;48.858;9.184;2023-11-21T13:10:28;0.70;;;0.70;;
9218;SDS011;4644;48.858;9.184;2023-11-21T13:12:56;0.60;;;0.60;;
9218;SDS011;4644;48.858;9.184;2023-11-21T13:15:26;0.60;;;0.60;;
9218;SDS011;4644;48.858;9.184;2023-11-21T13:17:54;0.80;;;0.80;;
9218;SDS011;4644;48.858;9.184;2023-11-21T13:20:22;0.63;;;0.63;;
9218;SDS011;4644;48.858;9.184;2023-11-21T13:22:50;0.60;;;0.60;;
9218;SDS011;4644;48.858;9.184;2023-11-21T13:25:22;0.70;;;0.70;;
9218;SDS011;4644;48.858;9.184;2023-11-21T13:27:52;0.60;;;0.60;;
9218;SDS011;4644;48.858;9.184;2023-11-21T13:30:19;0.70;;;0.70;;
9218;SDS011;4644;48.858;9.184;2023-11-21T13:32:53;0.70;;;0.70;;
9218;SDS011;4644;48.858;9.184;2023-11-21T13:35:22;0.77;;;0.77;;
9218;SDS011;4644;48.858;9.184;2023-11-21T13:37:56;0.87;;;0.80;;
9218;SDS011;4644;48.858;9.184;2023-11-21T13:40:25;0.80;;;0.80;;
9218;SDS011;4644;48.858;9.184;2023-11-21T13:42:52;0.70;;;0.70;;
9218;SDS011;4644;48.858;9.184;2023-11-21T13:45:23;0.70;;;0.70;;
9218;SDS011;4644;48.858;9.184;2023-11-21T13:47:51;0.80;;;0.80;;
9218;SDS011;4644;48.858;9.184;2023-11-21T13:50:22;0.50;;;0.50;;
9218;SDS011;4644;48.858;9.184;2023-11-21T13:52:54;0.70;;;0.70;;
9218;SDS011;4644;48.858;9.184;2023-11-21T13:55:21;0.90;;;0.80;;
9218;SDS011;4644;48.858;9.184;2023-11-21T13:57:50;0.70;;;0.70;;
9218;SDS011;4644;48.858;9.184;2023-11-21T14:00:18;0.63;;;0.63;;
9218;SDS011;4644;48.858;9.184;2023-11-21T14:03:03;0.67;;;0.67;;
9218;SDS011;4644;48.858;9.184;2023-11-21T14:05:36;0.70;;;0.70;;
9218;SDS011;4644;48.858;9.184;2023-11-21T14:08:04;0.87;;;0.87;;
9218;SDS011;4644;48.858;9.184;2023-11-21T14:10:31;0.50;;;0.50;;
9218;SDS011;4644;48.858;9.184;2023-11-21T14:13:05;1.07;;;0.80;;
9218;SDS011;4644;48.858;9.184;2023-11-21T14:15:32;0.93;;;0.90;;
9218;SDS011;4644;48.858;9.184;2023-11-21T14:18:04;0.63;;;0.63;;
9218;SDS011;4644;48.858;9.184;2023-11-21T14:20:35;0.60;;;0.60;;
9218;SDS011;4644;48.858;9.184;2023-11-21T14:23:02;0.70;;;0.70;;
9218;SDS011;4644;48.858;9.184;2023-11-21T14:25:31;0.53;;;0.53;;
9218;SDS011;4644;48.858;9.184;2023-11-21T14:28:02;0.40;;;0.40;;
9218;SDS011;4644;48.858;9.184;2023-11-21T14:30:29;0.60;;;0.60;;
9218;SDS011;4644;48.858;9.184;2023-11-21T14:33:00;0.60;;;0.60;;
9218;SDS011;4644;48.858;9.184;2023-11-21T14:35:28;0.50;;;0.50;;
9218;SDS011;4644;48.858;9.184;2023-11-21T14:37:57;0.60;;;0.60;;
9218;SDS011;4644;48.858;9.184;2023-11-21T14:40:25;0.60;;;0.60;;
9218;SDS011;4644;48.858;9.184;2023-11-21T14:42:58;0.50;;;0.50;;
9218;SDS011;4644;48.858;9.184;2023-11-21T14:45:25;0.67;;;0.67;;
9218;SDS011;4644;48.858;9.184;2023-11-21T14:47:54;0.60;;;0.60;;
9218;SDS011;4644;48.858;9.184;2023-11-21T14:50:32;1.00;;;1.00;;
9218;SDS011;4644;48.858;9.184;2023-11-21T14:53:17;0.70;;;0.70;;
9218;SDS011;4644;48.858;9.184;2023-11-21T14:56:03;0.70;;;0.70;;
9218;SDS011;4644;48.858;9.184;2023-11-21T14:58:32;0.97;;;0.97;;
9218;SDS011;4644;48.858;9.184;2023-11-21T15:00:58;1.03;;;1.03;;
9218;SDS011;4644;48.858;9.184;2023-11-21T15:03:26;0.80;;;0.80;;
9218;SDS011;4644;48.858;9.184;2023-11-21T15:06:10;0.83;;;0.83;;
9218;SDS011;4644;48.858;9.184;2023-11-21T15:08:51;1.27;;;1.00;;
9218;SDS011;4644;48.858;9.184;2023-11-21T15:11:24;0.87;;;0.83;;
9218;SDS011;4644;48.858;9.184;2023-11-21T15:13:55;0.83;;;0.83;;
9218;SDS011;4644;48.858;9.184;2023-11-21T15:16:23;1.47;;;1.33;;
9218;SDS011;4644;48.858;9.184;2023-11-21T15:18:52;1.13;;;1.03;;
9218;SDS011;4644;48.858;9.184;2023-11-21T15:21:21;1.20;;;0.93;;
9218;SDS011;4644;48.858;9.184;2023-11-21T15:23:49;1.00;;;1.00;;
9218;SDS011;4644;48.858;9.184;2023-11-21T15:26:16;0.90;;;0.90;;